createdAt,value
2022-08-19T00:02:01.614Z,99106.03
2022-08-19T00:04:07.080Z,99106.56
2022-08-19T00:06:11.491Z,99109.69
2022-08-19T00:08:13.723Z,99112.59
2022-08-19T00:10:17.337Z,99106.59
2022-08-19T00:12:20.025Z,99099.69
2022-08-19T00:14:24.297Z,99103.63
2022-08-19T00:16:27.030Z,99096.75
2022-08-19T00:18:29.648Z,99093.31
2022-08-19T00:20:32.255Z,99092.97
2022-08-19T00:22:34.997Z,99086.78
2022-08-19T00:24:39.090Z,99086.97
2022-08-19T00:26:42.765Z,99082.13
2022-08-19T00:28:45.602Z,99082.66
2022-08-19T00:30:48.198Z,99078.19
2022-08-19T00:32:55.568Z,99077.34
2022-08-19T00:34:58.415Z,99083.38
2022-08-19T00:37:01.063Z,99084.56
2022-08-19T00:39:03.468Z,99078.56
2022-08-19T00:41:07.296Z,99084.06
2022-08-19T00:43:14.496Z,99088.03
2022-08-19T00:45:21.456Z,99085.28
2022-08-19T00:47:23.636Z,99096.63
2022-08-19T00:49:37.253Z,99105.44
2022-08-19T00:51:39.298Z,99096.28
2022-08-19T00:53:42.076Z,99098.19
2022-08-19T00:55:51.422Z,99095.63
2022-08-19T00:58:01.695Z,99100.44
2022-08-19T01:00:07.467Z,99101.44
2022-08-19T01:02:09.986Z,99100.78
2022-08-19T01:04:13.067Z,99104.91
2022-08-19T01:06:15.733Z,99096.63
2022-08-19T01:08:23.374Z,99110.03
2022-08-19T01:10:37.657Z,99104.31
2022-08-19T01:12:41.584Z,99106.91
2022-08-19T01:14:44.109Z,99102.13
2022-08-19T01:16:48.144Z,99097.97
2022-08-19T01:18:51.068Z,99098.16
2022-08-19T01:20:57.207Z,99101.75
2022-08-19T01:23:02.601Z,99102.97
2022-08-19T01:25:12.874Z,99100.72
2022-08-19T01:27:18.087Z,99103.97
2022-08-19T01:29:20.471Z,99105.38
2022-08-19T01:31:28.163Z,99109.13
2022-08-19T01:33:32.402Z,99108.28
2022-08-19T01:35:37.212Z,99114.63
2022-08-19T01:37:52.936Z,99110.81
2022-08-19T01:39:55.234Z,99104.78
2022-08-19T01:41:57.486Z,99100.72
2022-08-19T01:44:09.938Z,99107.41
2022-08-19T01:46:24.594Z,99101.53
2022-08-19T01:48:30.499Z,99096.53
2022-08-19T01:50:34.308Z,99103.78
2022-08-19T01:52:38.336Z,99101.03
2022-08-19T01:54:40.492Z,99097.56
2022-08-19T01:56:45.340Z,99107.72
2022-08-19T01:59:15.758Z,99099.47
2022-08-19T02:01:18.508Z,99105.69
2022-08-19T02:03:20.901Z,99107.41
2022-08-19T02:05:26.492Z,99109.16
2022-08-19T02:07:29.635Z,99118.78
2022-08-19T02:09:33.406Z,99118.25
2022-08-19T02:11:39.664Z,99124.13
2022-08-19T02:13:42.127Z,99116.72
2022-08-19T02:15:44.548Z,99128.44
2022-08-19T02:17:47.857Z,99125.69
2022-08-19T02:19:50.185Z,99122.75
2022-08-19T02:21:52.962Z,99122.09
2022-08-19T02:23:58.085Z,99113.97
2022-08-19T02:26:00.500Z,99114.13
2022-08-19T02:28:03.123Z,99110.72
2022-08-19T02:30:07.212Z,99110.16
2022-08-19T02:32:09.335Z,99110.88
2022-08-19T02:34:11.806Z,99105.69
2022-08-19T02:36:15.623Z,99101.22
2022-08-19T02:38:26.995Z,99097.94
2022-08-19T02:40:35.137Z,99102.56
2022-08-19T02:42:37.383Z,99096.09
2022-08-19T02:44:40.320Z,99092.84
2022-08-19T02:46:43.158Z,99091.91
2022-08-19T02:48:45.561Z,99092.63
2022-08-19T02:50:51.710Z,99097.72
2022-08-19T02:52:58.340Z,99094.13
2022-08-19T02:55:01.480Z,99091.38
2022-08-19T02:57:04.117Z,99091.06
2022-08-19T02:59:12.269Z,99089.78
2022-08-19T03:01:24.045Z,99076.31
2022-08-19T03:03:27.050Z,99077.03
2022-08-19T03:05:48.180Z,99078.81
2022-08-19T03:07:51.453Z,99079.34
2022-08-19T03:09:56.741Z,99083.59
2022-08-19T03:11:59.292Z,99074.19
2022-08-19T03:14:02.836Z,99071.28
2022-08-19T03:16:07.243Z,99058.25
2022-08-19T03:18:10.076Z,99060.81
2022-08-19T03:20:12.801Z,99067.16
2022-08-19T03:22:15.202Z,99065.31
2022-08-19T03:24:19.984Z,99063.38
2022-08-19T03:26:22.634Z,99058.59
2022-08-19T03:28:25.295Z,99064.47
2022-08-19T03:30:27.497Z,99057.50
2022-08-19T03:32:33.257Z,99056.56
2022-08-19T03:34:37.937Z,99062.13
2022-08-19T03:36:40.645Z,99064.63
2022-08-19T03:38:47.560Z,99066.59
2022-08-19T03:40:49.886Z,99062.50
2022-08-19T03:42:52.193Z,99057.88
2022-08-19T03:44:54.596Z,99067.63
2022-08-19T03:46:59.314Z,99061.66
2022-08-19T03:49:05.898Z,99067.69
2022-08-19T03:51:30.578Z,99074.59
2022-08-19T03:53:35.646Z,99075.06
2022-08-19T03:55:43.091Z,99080.78
2022-08-19T03:57:49.890Z,99083.63
2022-08-19T03:59:51.986Z,99083.69
2022-08-19T04:01:56.895Z,99088.66
2022-08-19T04:04:02.052Z,99085.34
2022-08-19T04:06:19.469Z,99091.88
2022-08-19T04:08:22.306Z,99091.78
2022-08-19T04:10:25.312Z,99090.28
2022-08-19T04:12:28.390Z,99090.50
2022-08-19T04:14:31.663Z,99095.34
2022-08-19T04:16:35.060Z,99100.19
2022-08-19T04:18:39.859Z,99098.72
2022-08-19T04:20:47.052Z,99103.69
2022-08-19T04:22:49.573Z,99108.34
2022-08-19T04:24:52.184Z,99106.94
2022-08-19T04:26:57.503Z,99112.03
2022-08-19T04:29:04.407Z,99109.13
2022-08-19T04:31:06.900Z,99111.41
2022-08-19T04:33:09.861Z,99119.38
2022-08-19T04:35:17.688Z,99108.88
2022-08-19T04:37:21.244Z,99105.53
2022-08-19T04:39:49.214Z,99098.53
2022-08-19T04:42:09.941Z,99099.13
2022-08-19T04:44:13.103Z,99099.41
2022-08-19T04:46:23.484Z,99095.84
2022-08-19T04:48:44.916Z,99093.47
2022-08-19T04:50:53.377Z,99101.47
2022-08-19T04:52:57.206Z,99104.38
2022-08-19T04:54:59.893Z,99113.56
2022-08-19T04:57:01.924Z,99119.09
2022-08-19T04:59:04.994Z,99117.41
2022-08-19T05:01:07.112Z,99121.03
2022-08-19T05:03:09.665Z,99129.00
2022-08-19T05:05:12.052Z,99131.47
2022-08-19T05:07:14.655Z,99135.22
2022-08-19T05:09:18.107Z,99138.38
2022-08-19T05:11:26.638Z,99144.41
2022-08-19T05:13:29.134Z,99147.34
2022-08-19T05:15:34.552Z,99147.03
2022-08-19T05:17:38.937Z,99150.84
2022-08-19T05:20:00.101Z,99154.63
2022-08-19T05:22:20.770Z,99144.66
2022-08-19T05:24:24.774Z,99136.25
2022-08-19T05:26:27.719Z,99141.75
2022-08-19T05:28:29.927Z,99146.75
2022-08-19T05:30:46.911Z,99146.91
2022-08-19T05:32:50.357Z,99137.78
2022-08-19T05:34:56.460Z,99132.09
2022-08-19T05:37:00.221Z,99130.56
2022-08-19T05:39:04.216Z,99134.00
2022-08-19T05:41:14.187Z,99116.63
2022-08-19T05:43:17.128Z,99116.78
2022-08-19T05:45:19.677Z,99115.88
2022-08-19T05:47:22.488Z,99124.31
2022-08-19T05:49:26.630Z,99127.03
2022-08-19T05:51:29.467Z,99132.78
2022-08-19T05:53:35.024Z,99133.81
2022-08-19T05:55:40.275Z,99137.88
2022-08-19T05:57:42.870Z,99140.44
2022-08-19T05:59:47.687Z,99136.78
2022-08-19T06:01:52.043Z,99135.88
2022-08-19T06:03:55.109Z,99128.28
2022-08-19T06:05:59.844Z,99135.44
2022-08-19T06:08:02.404Z,99137.13
2022-08-19T06:10:10.632Z,99139.31
2022-08-19T06:12:12.865Z,99142.59
2022-08-19T06:14:19.731Z,99146.69
2022-08-19T06:16:34.588Z,99133.47
2022-08-19T06:18:36.945Z,99140.78
2022-08-19T06:20:55.435Z,99136.06
2022-08-19T06:22:58.329Z,99138.56
2022-08-19T06:25:00.614Z,99138.00
2022-08-19T06:27:06.827Z,99137.84
2022-08-19T06:29:12.253Z,99135.91
2022-08-19T06:31:29.519Z,99141.56
2022-08-19T06:33:31.840Z,99147.97
2022-08-19T06:35:39.650Z,99146.63
2022-08-19T06:37:44.058Z,99149.03
2022-08-19T06:39:46.789Z,99157.44
2022-08-19T06:41:58.155Z,99154.97
2022-08-19T06:44:01.559Z,99156.91
2022-08-19T06:46:13.047Z,99150.94
2022-08-19T06:48:17.208Z,99151.81
2022-08-19T06:50:20.849Z,99163.56
2022-08-19T06:52:27.607Z,99173.84
2022-08-19T06:54:31.428Z,99165.38
2022-08-19T06:56:39.939Z,99162.72
2022-08-19T06:58:42.345Z,99168.94
2022-08-19T07:00:44.966Z,99160.34
2022-08-19T07:02:52.192Z,99160.63
2022-08-19T07:05:04.781Z,99167.19
2022-08-19T07:07:19.874Z,99161.16
2022-08-19T07:09:23.427Z,99168.31
2022-08-19T07:11:26.679Z,99160.09
2022-08-19T07:13:34.145Z,99159.97
2022-08-19T07:15:39.804Z,99155.38
2022-08-19T07:17:42.293Z,99160.63
2022-08-19T07:19:45.215Z,99160.38
2022-08-19T07:21:54.252Z,99152.31
2022-08-19T07:23:58.505Z,99157.94
2022-08-19T07:26:11.063Z,99159.28
2022-08-19T07:28:15.807Z,99158.44
2022-08-19T07:30:29.906Z,99158.41
2022-08-19T07:32:35.043Z,99155.53
2022-08-19T07:34:38.831Z,99155.16
2022-08-19T07:36:44.401Z,99155.84
2022-08-19T07:38:49.782Z,99150.00
2022-08-19T07:40:52.862Z,99158.34
2022-08-19T07:42:55.321Z,99154.47
2022-08-19T07:44:58.637Z,99153.28
2022-08-19T07:47:01.543Z,99162.47
2022-08-19T07:49:05.549Z,99165.03
2022-08-19T07:51:09.935Z,99156.34
2022-08-19T07:53:13.456Z,99153.53
2022-08-19T07:55:42.619Z,99164.47
2022-08-19T07:57:40.149Z,99154.50
2022-08-19T08:00:32.801Z,99147.63
2022-08-19T08:02:35.848Z,99141.31
2022-08-19T08:04:56.959Z,99135.09
2022-08-19T08:07:18.070Z,99134.06
2022-08-19T08:09:30.705Z,99136.66
2022-08-19T08:11:33.517Z,99139.88
2022-08-19T08:13:42.643Z,99137.75
2022-08-19T08:15:45.976Z,99150.66
2022-08-19T08:17:51.551Z,99140.41
2022-08-19T08:19:55.100Z,99131.84
2022-08-19T08:22:00.083Z,99139.78
2022-08-19T08:24:02.696Z,99141.09
2022-08-19T08:26:05.991Z,99128.03
2022-08-19T08:28:11.395Z,99132.13
2022-08-19T08:30:25.849Z,99129.75
2022-08-19T08:32:33.678Z,99136.19
2022-08-19T08:34:39.369Z,99129.75
2022-08-19T08:36:46.249Z,99140.69
2022-08-19T08:38:49.334Z,99126.09
2022-08-19T08:40:57.188Z,99128.47
2022-08-19T08:43:11.166Z,99127.78
2022-08-19T08:45:19.777Z,99128.16
2022-08-19T08:47:26.525Z,99130.06
2022-08-19T08:49:48.054Z,99125.13
2022-08-19T08:52:06.280Z,99121.91
2022-08-19T08:54:13.199Z,99127.84
2022-08-19T08:56:18.442Z,99122.69
2022-08-19T08:58:32.944Z,99116.63
2022-08-19T09:00:41.720Z,99117.41
2022-08-19T09:02:45.251Z,99112.25
2022-08-19T09:04:55.709Z,99109.63
2022-08-19T09:07:35.350Z,99111.69
2022-08-19T09:09:43.682Z,99108.84
2022-08-19T09:12:01.657Z,99103.59
2022-08-19T09:14:40.656Z,99105.91
2022-08-19T09:16:39.880Z,99107.19
2022-08-19T09:19:00.124Z,99105.34
2022-08-19T09:21:02.691Z,99103.16
2022-08-19T09:23:05.888Z,99101.00
2022-08-19T09:25:11.259Z,99100.94
2022-08-19T09:27:18.489Z,99099.81
2022-08-19T09:29:22.575Z,99104.75
2022-08-19T09:31:28.230Z,99105.50
2022-08-19T09:33:30.760Z,99104.63
2022-08-19T09:35:49.636Z,99108.41
2022-08-19T09:37:59.665Z,99098.56
2022-08-19T09:40:02.564Z,99104.31
2022-08-19T09:42:06.116Z,99101.91
2022-08-19T09:44:19.126Z,99094.78
2022-08-19T09:46:24.387Z,99097.06
2022-08-19T09:48:27.740Z,99101.75
2022-08-19T09:50:33.328Z,99102.78
2022-08-19T09:52:39.774Z,99102.84
2022-08-19T09:54:57.494Z,99104.78
2022-08-19T09:57:04.696Z,99104.06
2022-08-19T09:59:11.350Z,99101.09
2022-08-19T10:01:19.737Z,99103.91
2022-08-19T10:03:25.604Z,99102.72
2022-08-19T10:05:55.228Z,99100.34
2022-08-19T10:07:58.664Z,99087.75
2022-08-19T10:10:01.150Z,99089.38
2022-08-19T10:12:06.253Z,99094.19
2022-08-19T10:14:08.951Z,99092.34
2022-08-19T10:16:16.974Z,99095.22
2022-08-19T10:18:21.720Z,99091.25
2022-08-19T10:20:23.975Z,99092.25
2022-08-19T10:22:28.797Z,99093.22
2022-08-19T10:24:34.733Z,99093.34
2022-08-19T10:26:43.108Z,99089.97
2022-08-19T10:28:47.073Z,99088.34
2022-08-19T10:30:49.414Z,99090.41
2022-08-19T10:32:51.486Z,99083.47
2022-08-19T10:34:57.110Z,99080.81
2022-08-19T10:37:02.081Z,99084.09
2022-08-19T10:39:08.770Z,99078.91
2022-08-19T10:41:18.760Z,99080.59
2022-08-19T10:43:21.083Z,99082.00
2022-08-19T10:45:28.150Z,99073.28
2022-08-19T10:47:31.563Z,99075.34
2022-08-19T10:49:54.307Z,99077.41
2022-08-19T10:52:18.990Z,99070.47
2022-08-19T10:54:31.204Z,99062.78
2022-08-19T10:56:54.577Z,99059.53
2022-08-19T10:58:59.791Z,99065.84
2022-08-19T11:01:02.313Z,99070.72
2022-08-19T11:03:05.102Z,99072.44
2022-08-19T11:05:12.590Z,99069.44
2022-08-19T11:07:15.597Z,99070.75
2022-08-19T11:09:24.339Z,99068.72
2022-08-19T11:11:27.647Z,99066.38
2022-08-19T11:13:36.428Z,99061.53
2022-08-19T11:15:39.569Z,99053.97
2022-08-19T11:17:42.497Z,99052.28
2022-08-19T11:19:44.774Z,99050.59
2022-08-19T11:21:49.543Z,99045.00
2022-08-19T11:23:55.087Z,99042.66
2022-08-19T11:26:01.227Z,99035.72
2022-08-19T11:28:03.765Z,99039.50
2022-08-19T11:30:08.730Z,99028.03
2022-08-19T11:32:16.823Z,99027.91
2022-08-19T11:34:23.028Z,99035.19
2022-08-19T11:36:25.082Z,99027.41
2022-08-19T11:38:28.242Z,99022.31
2022-08-19T11:40:30.513Z,99020.47
2022-08-19T11:42:51.425Z,99018.19
2022-08-19T11:44:53.836Z,99022.91
2022-08-19T11:46:56.742Z,99018.41
2022-08-19T11:49:01.645Z,99014.25
2022-08-19T11:51:10.584Z,99015.13
2022-08-19T11:53:12.788Z,99017.78
2022-08-19T11:55:15.526Z,99016.16
2022-08-19T11:57:18.291Z,99011.44
2022-08-19T11:59:20.748Z,99013.47
2022-08-19T12:01:25.443Z,99019.47
2022-08-19T12:03:27.673Z,99005.53
2022-08-19T12:05:32.561Z,99005.38
2022-08-19T12:07:37.680Z,98995.28
2022-08-19T12:09:42.916Z,98999.44
2022-08-19T12:11:45.518Z,99000.28
2022-08-19T12:13:48.893Z,98997.97
2022-08-19T12:15:53.251Z,98987.38
2022-08-19T12:17:57.772Z,98996.13
2022-08-19T12:20:00.145Z,98994.25
2022-08-19T12:22:04.602Z,98997.72
2022-08-19T12:24:07.763Z,98987.81
2022-08-19T12:26:11.958Z,98996.22
2022-08-19T12:28:14.675Z,98990.72
2022-08-19T12:30:17.508Z,98987.16
2022-08-19T12:32:19.912Z,98980.56
2022-08-19T12:34:22.310Z,98980.94
2022-08-19T12:36:25.226Z,98971.19
2022-08-19T12:38:28.448Z,98971.63
2022-08-19T12:40:33.925Z,98970.28
2022-08-19T12:42:36.520Z,98962.47
2022-08-19T12:44:41.628Z,98968.72
2022-08-19T12:46:45.124Z,98972.63
2022-08-19T12:48:47.821Z,98969.91
2022-08-19T12:50:54.108Z,98964.22
2022-08-19T12:52:59.600Z,98970.53
2022-08-19T12:55:01.965Z,98966.63
2022-08-19T12:57:11.840Z,98968.84
2022-08-19T12:59:15.399Z,98962.03
2022-08-19T13:01:22.655Z,98968.09
2022-08-19T13:03:30.104Z,98972.22
2022-08-19T13:05:37.042Z,98962.97
2022-08-19T13:07:40.541Z,98968.22
2022-08-19T13:09:43.595Z,98970.78
2022-08-19T13:11:45.719Z,98962.72
2022-08-19T13:13:51.267Z,98956.97
2022-08-19T13:15:53.135Z,98966.22
2022-08-19T13:17:57.138Z,98961.03
2022-08-19T13:20:00.669Z,98958.72
2022-08-19T13:22:02.545Z,98950.06
2022-08-19T13:24:04.865Z,98955.19
2022-08-19T13:26:09.476Z,98949.22
2022-08-19T13:32:36.343Z,98941.31
2022-08-19T13:34:38.608Z,98943.09
2022-08-19T13:36:41.257Z,98933.34
2022-08-19T13:38:43.413Z,98937.88
2022-08-19T13:40:45.682Z,98936.50
2022-08-19T13:42:53.666Z,98934.22
2022-08-19T13:44:55.740Z,98942.03
2022-08-19T13:47:10.124Z,98935.19
2022-08-19T13:49:16.046Z,98932.16
2022-08-19T13:51:19.136Z,98935.94
2022-08-19T13:53:21.243Z,98937.38
2022-08-19T13:55:25.020Z,98934.47
2022-08-19T13:57:27.775Z,98935.69
2022-08-19T13:59:30.025Z,98935.69
2022-08-19T14:01:32.373Z,98929.50
2022-08-19T14:03:35.722Z,98928.75
2022-08-19T14:05:38.497Z,98935.56
2022-08-19T14:07:40.728Z,98936.91
2022-08-19T14:09:43.064Z,98942.88
2022-08-19T14:11:48.674Z,98934.13
2022-08-19T14:13:51.642Z,98942.66
2022-08-19T14:15:54.424Z,98937.38
2022-08-19T14:17:56.708Z,98932.56
2022-08-19T14:20:10.963Z,98930.47
2022-08-19T14:22:13.542Z,98932.16
2022-08-19T14:24:16.691Z,98934.84
2022-08-19T14:26:20.249Z,98931.72
2022-08-19T14:28:22.480Z,98936.59
2022-08-19T14:30:35.706Z,98938.53
2022-08-19T14:32:38.758Z,98935.75
2022-08-19T14:34:40.864Z,98928.19
2022-08-19T14:36:43.496Z,98929.75
2022-08-19T14:38:45.597Z,98926.44
2022-08-19T14:40:50.058Z,98932.66
2022-08-19T14:42:52.332Z,98928.50
2022-08-19T14:44:55.037Z,98925.47
2022-08-19T14:47:00.134Z,98927.06
2022-08-19T14:49:09.416Z,98929.88
2022-08-19T14:51:12.093Z,98922.03
2022-08-19T14:53:14.236Z,98921.44
2022-08-19T14:55:19.308Z,98921.09
2022-08-19T14:57:23.798Z,98916.59
2022-08-19T14:59:26.178Z,98912.53
2022-08-19T15:01:28.765Z,98915.34
2022-08-19T15:03:32.717Z,98906.47
2022-08-19T15:05:37.078Z,98912.94
2022-08-19T15:07:39.695Z,98905.84
2022-08-19T15:09:43.063Z,98906.22
2022-08-19T15:11:45.297Z,98912.06
2022-08-19T15:13:48.539Z,98909.28
2022-08-19T15:15:50.877Z,98908.66
2022-08-19T15:17:54.080Z,98913.03
2022-08-19T15:19:56.342Z,98909.03
2022-08-19T15:21:59.809Z,98912.94
2022-08-19T15:24:02.348Z,98907.22
2022-08-19T15:26:07.111Z,98907.56
2022-08-19T15:28:12.217Z,98914.28
2022-08-19T15:30:22.031Z,98906.63
2022-08-19T15:32:26.446Z,98902.47
2022-08-19T15:34:29.158Z,98912.00
2022-08-19T15:36:31.639Z,98912.59
2022-08-19T15:38:39.537Z,98908.59
2022-08-19T15:40:43.222Z,98899.56
2022-08-19T15:42:45.858Z,98903.22
2022-08-19T15:44:52.042Z,98893.63
2022-08-19T15:46:56.417Z,98899.13
2022-08-19T15:49:00.354Z,98898.75
2022-08-19T15:51:03.031Z,98896.44
2022-08-19T15:53:08.818Z,98901.94
2022-08-19T15:55:11.072Z,98905.59
2022-08-19T15:57:27.302Z,98902.44
2022-08-19T15:59:48.180Z,98898.19
2022-08-19T16:02:10.681Z,98891.69
2022-08-19T16:04:34.227Z,98894.63
2022-08-19T16:06:36.781Z,98896.81
2022-08-19T16:08:48.779Z,98886.13
2022-08-19T16:10:51.260Z,98890.13
2022-08-19T16:12:53.570Z,98891.81
2022-08-19T16:14:56.179Z,98887.84
2022-08-19T16:16:58.759Z,98891.38
2022-08-19T16:19:03.820Z,98890.03
2022-08-19T16:21:08.730Z,98881.63
2022-08-19T16:23:11.287Z,98889.75
2022-08-19T16:25:14.327Z,98889.19
2022-08-19T16:27:16.643Z,98894.66
2022-08-19T16:29:33.545Z,98894.78
2022-08-19T16:31:40.713Z,98890.28
2022-08-19T16:33:43.125Z,98892.22
2022-08-19T16:35:45.355Z,98895.88
2022-08-19T16:37:54.433Z,98892.47
2022-08-19T16:39:56.983Z,98897.47
2022-08-19T16:41:59.908Z,98888.44
2022-08-19T16:44:02.014Z,98889.28
2022-08-19T16:46:07.343Z,98893.47
2022-08-19T16:48:09.732Z,98889.22
2022-08-19T16:50:13.886Z,98893.09
2022-08-19T16:52:16.532Z,98887.13
2022-08-19T16:54:19.229Z,98895.75
2022-08-19T16:56:21.809Z,98900.34
2022-08-19T16:58:28.313Z,98892.69
2022-08-19T17:00:33.858Z,98897.94
2022-08-19T17:02:37.382Z,98891.81
2022-08-19T17:04:39.797Z,98894.03
2022-08-19T17:06:43.697Z,98891.34
2022-08-19T17:08:48.733Z,98902.41
2022-08-19T17:11:16.430Z,98904.22
2022-08-19T17:13:16.551Z,98900.44
2022-08-19T17:15:19.135Z,98903.97
2022-08-19T17:17:24.709Z,98903.53
2022-08-19T17:19:29.688Z,98916.31
2022-08-19T17:21:34.366Z,98907.78
2022-08-19T17:23:43.627Z,98910.44
2022-08-19T17:25:46.640Z,98917.84
2022-08-19T17:27:49.416Z,98906.75
2022-08-19T17:29:52.368Z,98921.06
2022-08-19T17:31:54.430Z,98917.03
2022-08-19T17:33:59.317Z,98921.22
2022-08-19T17:36:03.785Z,98916.81
2022-08-19T17:38:09.107Z,98915.78
2022-08-19T17:40:15.796Z,98911.63
2022-08-19T17:42:23.426Z,98914.50
2022-08-19T17:44:25.702Z,98916.28
2022-08-19T17:46:27.780Z,98916.13
2022-08-19T17:48:32.299Z,98922.41
2022-08-19T17:50:36.321Z,98918.84
2022-08-19T17:52:39.998Z,98917.81
2022-08-19T17:54:42.596Z,98917.06
2022-08-19T17:56:46.277Z,98914.31
2022-08-19T17:58:59.901Z,98923.63
2022-08-19T18:01:04.111Z,98921.75
2022-08-19T18:03:07.528Z,98921.38
2022-08-19T18:05:14.918Z,98922.25
2022-08-19T18:07:21.526Z,98926.81
2022-08-19T18:09:38.655Z,98924.09
2022-08-19T18:11:44.945Z,98926.72
2022-08-19T18:13:55.118Z,98926.97
2022-08-19T18:15:59.039Z,98930.69
2022-08-19T18:18:00.951Z,98935.88
2022-08-19T18:20:12.241Z,98930.16
2022-08-19T18:22:37.045Z,98931.72
2022-08-19T18:24:46.169Z,98933.22
2022-08-19T18:26:49.681Z,98929.16
2022-08-19T18:28:52.480Z,98932.88
2022-08-19T18:30:56.571Z,98927.47
2022-08-19T18:33:00.092Z,98928.97
2022-08-19T18:35:06.923Z,98933.25
2022-08-19T18:37:09.868Z,98933.94
2022-08-19T18:39:30.145Z,98936.09
2022-08-19T18:41:50.875Z,98929.06
2022-08-19T18:44:11.744Z,98929.34
2022-08-19T18:46:36.836Z,98923.78
2022-08-19T18:48:58.507Z,98935.66
2022-08-19T18:51:02.652Z,98945.34
2022-08-19T18:53:08.106Z,98945.59
2022-08-19T18:55:10.563Z,98946.06
2022-08-19T18:57:13.598Z,98956.56
2022-08-19T18:59:16.200Z,98945.44
2022-08-19T19:01:23.320Z,98944.31
2022-08-19T19:03:27.049Z,98945.22
2022-08-19T19:05:29.528Z,98940.69
2022-08-19T19:07:31.635Z,98936.03
2022-08-19T19:09:34.567Z,98930.47
2022-08-19T19:11:40.254Z,98930.47
2022-08-19T19:13:48.172Z,98925.53
2022-08-19T19:15:50.739Z,98926.84
2022-08-19T19:17:53.062Z,98916.59
2022-08-19T19:19:55.398Z,98919.78
2022-08-19T19:21:58.799Z,98919.41
2022-08-19T19:24:01.679Z,98918.13
2022-08-19T19:26:06.224Z,98921.78
2022-08-19T19:28:10.155Z,98918.56
2022-08-19T19:30:16.756Z,98922.44
2022-08-19T19:32:26.394Z,98914.31
2022-08-19T19:34:29.716Z,98919.44
2022-08-19T19:36:34.900Z,98920.72
2022-08-19T19:38:37.507Z,98919.47
2022-08-19T19:40:39.986Z,98924.56
2022-08-19T19:42:42.216Z,98932.91
2022-08-19T19:44:48.216Z,98929.50
2022-08-19T19:46:51.157Z,98928.22
2022-08-19T19:48:57.081Z,98927.13
2022-08-19T19:52:03.993Z,98930.09
2022-08-19T19:54:13.866Z,98938.00
2022-08-19T19:56:16.893Z,98939.50
2022-08-19T19:58:21.212Z,98938.38
2022-08-19T20:00:31.259Z,98945.59
2022-08-19T20:02:33.693Z,98949.66
2022-08-19T20:04:39.216Z,98957.06
2022-08-19T20:06:44.261Z,98955.56
2022-08-19T20:09:06.228Z,98953.59
2022-08-19T20:11:08.699Z,98951.44
2022-08-19T20:13:11.874Z,98950.69
2022-08-19T20:15:15.046Z,98945.13
2022-08-19T20:17:17.034Z,98951.94
2022-08-19T20:19:22.983Z,98952.59
2022-08-19T20:21:32.241Z,98955.63
2022-08-19T20:23:34.888Z,98942.63
2022-08-19T20:25:39.092Z,98949.94
2022-08-19T20:27:42.425Z,98946.31
2022-08-19T20:29:45.085Z,98946.06
2022-08-19T20:31:59.063Z,98945.59
2022-08-19T20:34:02.214Z,98943.59
2022-08-19T20:36:05.136Z,98939.69
2022-08-19T20:38:08.892Z,98937.44
2022-08-19T20:40:15.262Z,98937.41
2022-08-19T20:42:17.535Z,98936.06
2022-08-19T20:44:20.207Z,98929.59
2022-08-19T20:46:22.617Z,98928.38
2022-08-19T20:48:24.881Z,98923.72
2022-08-19T20:50:27.103Z,98916.19
2022-08-19T20:52:33.363Z,98919.44
2022-08-19T20:54:35.890Z,98929.19
2022-08-19T20:56:38.345Z,98931.97
2022-08-19T20:58:41.783Z,98934.50
2022-08-19T21:00:46.068Z,98936.00
2022-08-19T21:02:48.167Z,98950.00
2022-08-19T21:04:50.774Z,98948.75
2022-08-19T21:06:53.197Z,98950.72
2022-08-19T21:08:55.108Z,98953.88
2022-08-19T21:10:58.310Z,98953.47
2022-08-19T21:13:00.793Z,98956.50
2022-08-19T21:15:03.181Z,98950.69
2022-08-19T21:17:05.436Z,98958.00
2022-08-19T21:19:07.548Z,98952.28
2022-08-19T21:21:12.252Z,98950.81
2022-08-19T21:23:20.957Z,98950.81
2022-08-19T21:25:23.368Z,98958.31
2022-08-19T21:27:25.437Z,98950.19
2022-08-19T21:29:27.753Z,98952.53
2022-08-19T21:31:29.723Z,98951.78
2022-08-19T21:33:32.233Z,98958.59
2022-08-19T21:35:34.902Z,98964.38
2022-08-19T21:37:38.841Z,98958.69
2022-08-19T21:39:43.675Z,98960.44
2022-08-19T21:41:46.895Z,98962.53
2022-08-19T21:43:52.030Z,98964.41
2022-08-19T21:45:54.360Z,98960.59
2022-08-19T21:47:57.016Z,98954.66
2022-08-19T21:49:59.335Z,98967.25
2022-08-19T21:52:02.109Z,98961.28
2022-08-19T21:54:05.726Z,98965.13
2022-08-19T21:56:08.053Z,98964.28
2022-08-19T21:58:12.020Z,98960.84
2022-08-19T22:00:18.946Z,98965.91
2022-08-19T22:02:22.050Z,98966.16
2022-08-19T22:04:24.381Z,98958.88
2022-08-19T22:06:28.632Z,98958.44
2022-08-19T22:08:31.635Z,98963.28
2022-08-19T22:10:34.288Z,98960.50
2022-08-19T22:12:39.152Z,98956.84
2022-08-19T22:14:50.501Z,98963.22
2022-08-19T22:16:52.721Z,98965.72
2022-08-19T22:18:55.257Z,98962.94
2022-08-19T22:20:57.943Z,98966.13
2022-08-19T22:23:04.576Z,98960.13
2022-08-19T22:25:12.922Z,98973.13
2022-08-19T22:27:32.607Z,98957.75
2022-08-19T22:29:34.737Z,98958.53
2022-08-19T22:31:37.805Z,98971.72
2022-08-19T22:33:40.179Z,98970.88
2022-08-19T22:35:44.948Z,98966.56
2022-08-19T22:37:47.194Z,98967.16
2022-08-19T22:39:49.533Z,98970.53
2022-08-19T22:41:52.104Z,98968.81
2022-08-19T22:43:54.765Z,98965.78
2022-08-19T22:45:58.378Z,98964.47
2022-08-19T22:48:00.572Z,98956.97
2022-08-19T22:50:03.112Z,98963.06
2022-08-19T22:52:17.686Z,98953.06
2022-08-19T22:54:19.913Z,98947.72
2022-08-19T22:56:22.447Z,98938.75
2022-08-19T22:58:28.116Z,98932.75
2022-08-19T23:00:31.065Z,98929.72
2022-08-19T23:02:51.562Z,98919.22
2022-08-19T23:04:54.926Z,98921.34
2022-08-19T23:06:57.010Z,98920.00
2022-08-19T23:08:59.283Z,98921.44
2022-08-19T23:11:01.565Z,98928.69
2022-08-19T23:13:03.766Z,98940.13
2022-08-19T23:15:14.610Z,98941.38
2022-08-19T23:17:20.556Z,98936.72
2022-08-19T23:19:22.661Z,98933.97
2022-08-19T23:21:26.632Z,98930.94
2022-08-19T23:23:28.831Z,98930.25
2022-08-19T23:25:33.632Z,98929.78
2022-08-19T23:27:54.409Z,98931.22
2022-08-19T23:30:15.581Z,98936.50
2022-08-19T23:32:19.607Z,98943.66
2022-08-19T23:34:22.068Z,98935.94
2022-08-19T23:36:24.044Z,98945.66
2022-08-19T23:38:28.590Z,98942.22
2022-08-19T23:40:30.913Z,98941.38
2022-08-19T23:42:33.058Z,98945.59
2022-08-19T23:44:35.285Z,98953.22
2022-08-19T23:46:54.977Z,98956.72
2022-08-19T23:48:57.853Z,98954.13
2022-08-19T23:51:03.775Z,98950.69
2022-08-19T23:53:05.829Z,98947.84
2022-08-19T23:55:08.233Z,98946.97
2022-08-19T23:57:13.524Z,98936.97
2022-08-19T23:59:19.378Z,98946.53
